createdAt,value
2023-04-23T00:02:59.032Z,97894.88
2023-04-23T00:06:05.676Z,97894.81
2023-04-23T00:09:08.610Z,97895.97
2023-04-23T00:12:12.089Z,97900.00
2023-04-23T00:15:16.376Z,97893.53
2023-04-23T00:18:20.056Z,97896.47
2023-04-23T00:21:24.152Z,97896.78
2023-04-23T00:24:26.904Z,97893.22
2023-04-23T00:27:29.500Z,97904.34
2023-04-23T00:30:32.327Z,97907.00
2023-04-23T00:33:34.976Z,97909.13
2023-04-23T00:36:39.117Z,97910.22
2023-04-23T00:39:41.840Z,97907.25
2023-04-23T00:42:45.686Z,97915.41
2023-04-23T00:45:48.909Z,97915.81
2023-04-23T00:48:52.113Z,97914.81
2023-04-23T00:51:56.209Z,97926.94
2023-04-23T00:54:58.880Z,97927.50
2023-04-23T01:01:30.244Z,97930.19
2023-04-23T01:04:33.460Z,97927.66
2023-04-23T01:07:38.093Z,97936.78
2023-04-23T01:10:40.991Z,97936.22
2023-04-23T01:13:44.204Z,97934.31
2023-04-23T01:16:47.180Z,97935.50
2023-04-23T01:19:49.762Z,97932.66
2023-04-23T01:22:54.034Z,97937.34
2023-04-23T01:25:57.640Z,97938.44
2023-04-23T01:29:01.000Z,97949.19
2023-04-23T01:32:04.087Z,97946.31
2023-04-23T01:35:08.298Z,97953.97
2023-04-23T01:38:12.972Z,97954.25
2023-04-23T01:41:15.620Z,97952.31
2023-04-23T01:44:18.224Z,97951.75
2023-04-23T01:47:21.441Z,97957.03
2023-04-23T01:50:26.172Z,97957.56
2023-04-23T01:53:30.184Z,97957.06
2023-04-23T01:56:35.055Z,97958.31
2023-04-23T01:59:38.361Z,97963.38
2023-04-23T02:02:42.382Z,97966.25
2023-04-23T02:05:45.647Z,97961.47
2023-04-23T02:08:49.800Z,97955.66
2023-04-23T02:11:52.469Z,97957.88
2023-04-23T02:14:55.293Z,97971.47
2023-04-23T02:17:58.001Z,97978.50
2023-04-23T02:21:01.926Z,97984.03
2023-04-23T02:24:07.026Z,97988.16
2023-04-23T02:27:09.593Z,97985.78
2023-04-23T02:30:13.010Z,97981.19
2023-04-23T02:33:15.580Z,97986.16
2023-04-23T02:36:18.302Z,97981.09
2023-04-23T02:39:22.260Z,97977.22
2023-04-23T02:42:24.943Z,97981.94
2023-04-23T02:45:27.638Z,97975.13
2023-04-23T02:48:30.764Z,97970.59
2023-04-23T02:51:33.695Z,97965.88
2023-04-23T02:54:37.742Z,97963.41
2023-04-23T02:57:40.979Z,97973.50
2023-04-23T03:00:43.608Z,97978.34
2023-04-23T03:03:46.361Z,97979.25
2023-04-23T03:06:49.082Z,97989.84
2023-04-23T03:09:53.100Z,97983.25
2023-04-23T03:12:56.425Z,97986.41
2023-04-23T03:15:58.960Z,97968.50
2023-04-23T03:19:02.028Z,97971.97
2023-04-23T03:22:05.775Z,97977.03
2023-04-23T03:25:10.157Z,97964.88
2023-04-23T03:28:12.788Z,97979.34
2023-04-23T03:31:15.326Z,97969.00
2023-04-23T03:34:17.832Z,97961.09
2023-04-23T03:37:20.311Z,97962.25
2023-04-23T03:40:24.283Z,97957.13
2023-04-23T03:43:27.019Z,97956.88
2023-04-23T03:46:29.722Z,97960.09
2023-04-23T03:49:32.353Z,97956.25
2023-04-23T03:52:35.209Z,97956.25
2023-04-23T03:55:39.120Z,97961.69
2023-04-23T03:58:41.693Z,97969.44
2023-04-23T04:01:44.314Z,97975.72
2023-04-23T04:04:49.654Z,97985.66
2023-04-23T04:07:52.375Z,97985.38
2023-04-23T04:10:57.034Z,97986.59
2023-04-23T04:13:59.598Z,97983.50
2023-04-23T04:17:02.152Z,97987.22
2023-04-23T04:20:06.778Z,97985.97
2023-04-23T04:23:09.275Z,97987.84
2023-04-23T04:26:14.794Z,97989.91
2023-04-23T04:29:17.283Z,97986.47
2023-04-23T04:32:19.817Z,97995.66
2023-04-23T04:35:22.579Z,97995.47
2023-04-23T04:38:25.110Z,97987.38
2023-04-23T04:41:29.031Z,97997.44
2023-04-23T04:44:32.224Z,97997.03
2023-04-23T04:47:34.873Z,97992.84
2023-04-23T04:50:37.621Z,97988.97
2023-04-23T04:53:40.194Z,97986.06
2023-04-23T04:56:44.036Z,97984.53
2023-04-23T04:59:46.929Z,97996.22
2023-04-23T05:02:49.988Z,97992.59
2023-04-23T05:05:54.997Z,97989.81
2023-04-23T05:08:57.707Z,97985.25
2023-04-23T05:12:01.922Z,97987.72
2023-04-23T05:15:05.393Z,97991.00
2023-04-23T05:18:07.826Z,97990.19
2023-04-23T05:21:11.507Z,97985.03
2023-04-23T05:24:13.979Z,97986.16
2023-04-23T05:27:17.907Z,97984.22
2023-04-23T05:30:20.498Z,97990.19
2023-04-23T05:33:23.033Z,97998.16
2023-04-23T05:36:25.903Z,98000.72
2023-04-23T05:39:28.436Z,97997.75
2023-04-23T05:42:32.295Z,97987.59
2023-04-23T05:45:35.028Z,97987.91
2023-04-23T05:48:37.589Z,97988.00
2023-04-23T05:51:40.259Z,97992.94
2023-04-23T05:54:43.070Z,97987.16
2023-04-23T05:57:47.504Z,97992.56
2023-04-23T06:00:50.570Z,97996.81
2023-04-23T06:03:53.325Z,97999.84
2023-04-23T06:06:56.029Z,98000.09
2023-04-23T06:09:58.558Z,98006.53
2023-04-23T06:13:02.465Z,98004.03
2023-04-23T06:16:05.068Z,97994.88
2023-04-23T06:19:07.622Z,97999.13
2023-04-23T06:22:10.492Z,97999.22
2023-04-23T06:25:12.975Z,98004.59
2023-04-23T06:28:17.110Z,98003.94
2023-04-23T06:31:20.196Z,97997.25
2023-04-23T06:34:22.870Z,98005.16
2023-04-23T06:37:27.514Z,97997.44
2023-04-23T06:40:32.346Z,98007.22
2023-04-23T06:43:36.748Z,97996.66
2023-04-23T06:46:39.428Z,97990.19
2023-04-23T06:49:42.028Z,97983.28
2023-04-23T06:52:44.691Z,97981.91
2023-04-23T06:55:47.218Z,97971.03
2023-04-23T06:58:51.502Z,97969.06
2023-04-23T07:01:54.179Z,97959.09
2023-04-23T07:04:56.720Z,97961.38
2023-04-23T07:07:59.358Z,97965.75
2023-04-23T07:11:02.831Z,97963.44
2023-04-23T07:14:06.898Z,97958.34
2023-04-23T07:17:10.993Z,97955.59
2023-04-23T07:20:13.627Z,97955.72
2023-04-23T07:23:16.346Z,97957.69
2023-04-23T07:26:18.949Z,97951.63
2023-04-23T07:29:23.132Z,97950.09
2023-04-23T07:32:28.373Z,97947.72
2023-04-23T07:35:31.466Z,97952.09
2023-04-23T07:38:34.028Z,97944.19
2023-04-23T07:41:37.469Z,97945.44
2023-04-23T07:44:41.982Z,97949.38
2023-04-23T07:47:46.393Z,97948.03
2023-04-23T07:50:49.175Z,97942.66
2023-04-23T07:53:54.202Z,97940.97
2023-04-23T07:56:57.393Z,97941.38
2023-04-23T08:00:01.546Z,97948.16
2023-04-23T08:03:04.379Z,97937.59
2023-04-23T08:06:07.534Z,97936.38
2023-04-23T08:09:10.223Z,97941.25
2023-04-23T08:12:12.791Z,97937.00
2023-04-23T08:15:16.916Z,97927.63
2023-04-23T08:18:19.463Z,97919.72
2023-04-23T08:21:22.454Z,97920.50
2023-04-23T08:24:24.989Z,97925.63
2023-04-23T08:27:27.873Z,97917.22
2023-04-23T08:30:31.867Z,97912.66
2023-04-23T08:33:34.393Z,97917.28
2023-04-23T08:36:37.457Z,97914.31
2023-04-23T08:39:40.783Z,97914.91
2023-04-23T08:42:44.881Z,97908.41
2023-04-23T08:45:49.992Z,97910.41
2023-04-23T08:48:53.649Z,97902.66
2023-04-23T08:51:57.410Z,97911.81
2023-04-23T08:55:02.664Z,97904.41
2023-04-23T08:58:07.872Z,97912.94
2023-04-23T09:01:12.193Z,97903.63
2023-04-23T09:04:16.892Z,97896.09
2023-04-23T09:07:19.798Z,97898.75
2023-04-23T09:10:22.624Z,97900.28
2023-04-23T09:13:25.700Z,97887.59
2023-04-23T09:16:29.800Z,97886.56
2023-04-23T09:19:32.604Z,97894.25
2023-04-23T09:22:44.356Z,97885.66
2023-04-23T09:25:48.863Z,97877.72
2023-04-23T09:28:52.373Z,97875.44
2023-04-23T09:31:57.513Z,97864.81
2023-04-23T09:35:00.183Z,97862.41
2023-04-23T09:38:06.055Z,97848.00
2023-04-23T09:41:22.637Z,97860.41
2023-04-23T09:44:26.484Z,97845.38
2023-04-23T09:47:33.333Z,97837.06
2023-04-23T09:50:38.352Z,97837.94
2023-04-23T09:53:42.759Z,97835.47
2023-04-23T09:56:46.358Z,97834.59
2023-04-23T09:59:53.070Z,97834.28
2023-04-23T10:03:05.017Z,97828.28
2023-04-23T10:06:17.280Z,97827.03
2023-04-23T10:09:29.879Z,97820.25
2023-04-23T10:12:52.266Z,97821.19
2023-04-23T10:15:57.822Z,97819.13
2023-04-23T10:19:03.645Z,97796.75
2023-04-23T10:22:18.609Z,97801.50
2023-04-23T10:25:22.451Z,97796.63
2023-04-23T10:28:29.214Z,97792.91
2023-04-23T10:31:33.986Z,97800.94
2023-04-23T10:34:38.320Z,97790.91
2023-04-23T10:37:41.612Z,97786.97
2023-04-23T10:40:46.643Z,97788.47
2023-04-23T10:43:49.287Z,97789.91
2023-04-23T10:46:53.751Z,97775.88
2023-04-23T10:49:57.927Z,97778.22
2023-04-23T10:53:00.579Z,97770.09
2023-04-23T10:56:07.669Z,97764.09
2023-04-23T10:59:19.530Z,97754.03
2023-04-23T11:02:24.924Z,97757.59
2023-04-23T11:05:29.370Z,97753.59
2023-04-23T11:08:33.074Z,97740.06
2023-04-23T11:11:40.839Z,97743.81
2023-04-23T11:14:48.089Z,97730.59
2023-04-23T11:18:00.922Z,97731.13
2023-04-23T11:21:07.175Z,97733.22
2023-04-23T11:24:09.982Z,97731.38
2023-04-23T11:27:14.069Z,97733.84
2023-04-23T11:30:18.419Z,97724.88
2023-04-23T11:33:21.252Z,97722.88
2023-04-23T11:36:25.952Z,97717.00
2023-04-23T11:39:28.646Z,97712.00
2023-04-23T11:42:31.539Z,97701.50
2023-04-23T11:45:34.156Z,97706.00
2023-04-23T11:48:36.884Z,97699.13
2023-04-23T11:51:46.528Z,97687.28
2023-04-23T11:54:49.119Z,97684.47
2023-04-23T11:57:53.499Z,97684.84
2023-04-23T12:00:59.228Z,97672.50
2023-04-23T12:04:02.075Z,97660.72
2023-04-23T12:07:19.306Z,97667.16
2023-04-23T12:10:26.120Z,97664.19
2023-04-23T12:13:31.323Z,97642.84
2023-04-23T12:16:38.743Z,97645.97
2023-04-23T12:19:44.705Z,97649.00
2023-04-23T12:22:49.207Z,97647.09
2023-04-23T12:25:54.516Z,97641.28
2023-04-23T12:29:00.227Z,97639.69
2023-04-23T12:32:03.490Z,97623.41
2023-04-23T12:35:07.182Z,97630.78
2023-04-23T12:38:23.558Z,97623.19
2023-04-23T12:41:26.299Z,97617.72
2023-04-23T12:44:29.441Z,97616.69
2023-04-23T12:47:32.172Z,97627.75
2023-04-23T12:50:35.097Z,97612.69
2023-04-23T12:53:39.019Z,97601.66
2023-04-23T12:56:41.889Z,97600.25
2023-04-23T12:59:44.874Z,97592.97
2023-04-23T13:02:47.929Z,97596.13
2023-04-23T13:05:51.318Z,97584.19
2023-04-23T13:08:55.575Z,97566.44
2023-04-23T13:12:00.160Z,97567.03
2023-04-23T13:15:03.453Z,97565.22
2023-04-23T13:18:06.873Z,97548.47
2023-04-23T13:21:11.016Z,97535.03
2023-04-23T13:24:15.021Z,97516.03
2023-04-23T13:27:17.852Z,97518.28
2023-04-23T13:30:20.540Z,97521.03
2023-04-23T13:33:23.153Z,97497.25
2023-04-23T13:36:26.348Z,97497.84
2023-04-23T13:39:30.892Z,97484.16
2023-04-23T13:42:34.260Z,97481.34
2023-04-23T13:45:36.911Z,97463.19
2023-04-23T13:48:39.546Z,97466.59
2023-04-23T13:51:42.202Z,97466.88
2023-04-23T13:54:47.784Z,97459.09
2023-04-23T13:57:50.638Z,97453.66
2023-04-23T14:00:53.920Z,97461.34
2023-04-23T14:03:57.107Z,97431.53
2023-04-23T14:06:59.754Z,97434.66
2023-04-23T14:10:04.371Z,97436.66
2023-04-23T14:13:07.096Z,97408.53
2023-04-23T14:16:09.891Z,97414.16
2023-04-23T14:19:12.598Z,97403.59
2023-04-23T14:22:15.215Z,97402.97
2023-04-23T14:25:24.831Z,97395.38
2023-04-23T14:28:31.080Z,97388.13
2023-04-23T14:31:33.990Z,97392.63
2023-04-23T14:34:36.824Z,97389.00
2023-04-23T14:37:43.057Z,97377.78
2023-04-23T14:40:47.056Z,97370.00
2023-04-23T14:43:49.713Z,97369.72
2023-04-23T14:46:52.456Z,97370.16
2023-04-23T14:49:57.487Z,97360.72
2023-04-23T14:53:00.191Z,97355.50
2023-04-23T14:56:05.420Z,97345.38
2023-04-23T14:59:08.198Z,97349.72
2023-04-23T15:02:12.042Z,97362.03
2023-04-23T15:05:15.875Z,97354.78
2023-04-23T15:08:18.519Z,97369.28
2023-04-23T15:11:22.590Z,97370.66
2023-04-23T15:14:27.060Z,97359.53
2023-04-23T15:17:29.829Z,97356.41
2023-04-23T15:20:32.546Z,97354.25
2023-04-23T15:23:35.186Z,97356.28
2023-04-23T15:26:39.335Z,97361.41
2023-04-23T15:29:42.315Z,97352.94
2023-04-23T15:32:45.085Z,97358.75
2023-04-23T15:35:48.435Z,97357.19
2023-04-23T15:38:51.177Z,97365.69
2023-04-23T15:41:55.195Z,97377.56
2023-04-23T15:44:57.775Z,97401.75
2023-04-23T15:48:00.630Z,97418.91
2023-04-23T15:51:03.401Z,97414.50
2023-04-23T15:54:08.231Z,97385.59
2023-04-23T15:57:13.087Z,97375.75
2023-04-23T16:00:16.882Z,97371.50
2023-04-23T16:03:19.891Z,97368.09
2023-04-23T16:06:22.650Z,97374.56
2023-04-23T16:09:25.221Z,97364.13
2023-04-23T16:12:29.363Z,97359.47
2023-04-23T16:15:31.998Z,97379.78
2023-04-23T16:18:34.734Z,97382.00
2023-04-23T16:21:37.277Z,97375.78
2023-04-23T16:24:39.834Z,97381.09
2023-04-23T16:27:43.967Z,97376.63
2023-04-23T16:30:46.576Z,97397.63
2023-04-23T16:33:49.165Z,97428.06
2023-04-23T16:36:51.622Z,97489.84
2023-04-23T16:39:54.241Z,97542.94
2023-04-23T16:42:58.130Z,97504.34
2023-04-23T16:46:00.662Z,97429.59
2023-04-23T16:49:03.430Z,97437.31
2023-04-23T16:52:05.930Z,97424.59
2023-04-23T16:55:09.252Z,97423.88
2023-04-23T16:58:13.096Z,97422.66
2023-04-23T17:01:16.500Z,97428.81
2023-04-23T17:04:19.141Z,97428.50
2023-04-23T17:07:21.837Z,97427.94
2023-04-23T17:10:24.521Z,97432.84
2023-04-23T17:13:28.359Z,97437.75
2023-04-23T17:16:31.043Z,97447.28
2023-04-23T17:19:34.589Z,97442.97
2023-04-23T17:22:37.200Z,97445.34
2023-04-23T17:25:39.707Z,97453.09
2023-04-23T17:28:43.650Z,97461.22
2023-04-23T17:31:46.592Z,97464.28
2023-04-23T17:34:53.912Z,97457.16
2023-04-23T17:38:02.562Z,97456.56
2023-04-23T17:41:05.705Z,97456.22
2023-04-23T17:44:09.586Z,97457.00
2023-04-23T17:47:14.024Z,97460.88
2023-04-23T17:50:17.154Z,97444.78
2023-04-23T17:53:19.677Z,97450.03
2023-04-23T17:56:22.145Z,97446.38
2023-04-23T17:59:26.068Z,97443.16
2023-04-23T18:02:28.849Z,97448.88
2023-04-23T18:05:31.819Z,97448.16
2023-04-23T18:08:34.288Z,97451.28
2023-04-23T18:15:05.966Z,97458.31
2023-04-23T18:18:08.917Z,97467.72
2023-04-23T18:21:13.367Z,97467.66
2023-04-23T18:24:18.222Z,97470.06
2023-04-23T18:27:20.914Z,97461.47
2023-04-23T18:30:25.672Z,97464.13
2023-04-23T18:33:32.702Z,97462.03
2023-04-23T18:36:38.267Z,97473.59
2023-04-23T18:39:41.476Z,97471.06
2023-04-23T18:42:43.965Z,97475.59
2023-04-23T18:45:47.955Z,97485.75
2023-04-23T18:48:54.989Z,97478.78
2023-04-23T18:51:57.995Z,97500.50
2023-04-23T18:55:00.709Z,97502.94
2023-04-23T18:58:03.240Z,97501.16
2023-04-23T19:01:07.347Z,97512.31
2023-04-23T19:04:10.225Z,97517.19
2023-04-23T19:07:12.934Z,97518.25
2023-04-23T19:10:16.434Z,97528.34
2023-04-23T19:13:20.358Z,97534.09
2023-04-23T19:16:24.312Z,97535.13
2023-04-23T19:19:30.846Z,97532.41
2023-04-23T19:22:33.367Z,97538.69
2023-04-23T19:25:36.114Z,97546.22
2023-04-23T19:28:38.644Z,97565.34
2023-04-23T19:31:42.479Z,97590.81
2023-04-23T19:34:45.629Z,97598.22
2023-04-23T19:37:48.659Z,97590.47
2023-04-23T19:40:51.289Z,97589.28
2023-04-23T19:43:53.903Z,97586.03
2023-04-23T19:46:57.846Z,97582.13
2023-04-23T19:50:00.404Z,97557.75
2023-04-23T19:53:03.019Z,97561.75
2023-04-23T19:56:08.382Z,97572.28
2023-04-23T19:59:13.840Z,97581.41
2023-04-23T20:02:18.843Z,97587.00
2023-04-23T20:05:22.043Z,97582.13
2023-04-23T20:08:29.677Z,97589.34
2023-04-23T20:11:32.225Z,97580.72
2023-04-23T20:14:34.850Z,97601.66
2023-04-23T20:17:39.056Z,97593.34
2023-04-23T20:20:42.688Z,97596.97
2023-04-23T20:23:45.042Z,97600.03
2023-04-23T20:26:47.884Z,97588.94
2023-04-23T20:29:50.497Z,97589.06
2023-04-23T20:32:54.537Z,97594.56
2023-04-23T20:35:58.770Z,97589.50
2023-04-23T20:39:03.274Z,97588.44
2023-04-23T20:42:07.043Z,97591.66
2023-04-23T20:45:11.609Z,97574.84
2023-04-23T20:48:15.508Z,97572.00
2023-04-23T20:51:18.151Z,97586.97
2023-04-23T20:54:20.782Z,97589.94
2023-04-23T20:57:23.295Z,97597.47
2023-04-23T21:00:27.856Z,97600.19
2023-04-23T21:03:32.989Z,97600.91
2023-04-23T21:06:35.956Z,97604.72
2023-04-23T21:09:38.560Z,97615.25
2023-04-23T21:12:43.465Z,97615.16
2023-04-23T21:15:46.178Z,97612.13
2023-04-23T21:18:51.062Z,97612.38
2023-04-23T21:21:53.667Z,97603.69
2023-04-23T21:24:56.576Z,97597.28
2023-04-23T21:27:59.430Z,97593.94
2023-04-23T21:31:06.962Z,97592.81
2023-04-23T21:34:11.102Z,97583.28
2023-04-23T21:37:13.627Z,97584.75
2023-04-23T21:40:16.154Z,97567.84
2023-04-23T21:43:18.776Z,97559.88
2023-04-23T21:46:24.035Z,97571.88
2023-04-23T21:49:27.984Z,97571.66
2023-04-23T21:52:31.221Z,97580.31
2023-04-23T21:55:33.792Z,97592.50
2023-04-23T21:58:36.309Z,97590.06
2023-04-23T22:01:38.840Z,97585.94
2023-04-23T22:04:44.534Z,97588.41
2023-04-23T22:07:47.632Z,97596.16
2023-04-23T22:10:50.246Z,97594.53
2023-04-23T22:13:52.769Z,97592.31
2023-04-23T22:16:55.330Z,97588.78
2023-04-23T22:19:59.282Z,97574.91
2023-04-23T22:23:01.820Z,97566.34
2023-04-23T22:26:04.409Z,97564.69
2023-04-23T22:29:06.967Z,97570.91
2023-04-23T22:32:09.563Z,97558.00
2023-04-23T22:35:13.647Z,97551.75
2023-04-23T22:38:16.567Z,97555.31
2023-04-23T22:41:19.116Z,97565.84
2023-04-23T22:44:21.670Z,97568.59
2023-04-23T22:47:24.254Z,97557.56
2023-04-23T22:50:29.535Z,97564.03
2023-04-23T22:53:32.132Z,97565.13
2023-04-23T22:56:34.661Z,97560.75
2023-04-23T22:59:37.260Z,97559.66
2023-04-23T23:02:40.060Z,97541.63
2023-04-23T23:05:44.098Z,97534.50
2023-04-23T23:08:46.608Z,97540.97
2023-04-23T23:11:49.147Z,97542.38
2023-04-23T23:14:51.725Z,97536.28
2023-04-23T23:17:54.766Z,97544.31
2023-04-23T23:20:58.833Z,97543.81
2023-04-23T23:24:01.377Z,97544.66
2023-04-23T23:27:04.008Z,97546.41
2023-04-23T23:30:09.647Z,97550.06
2023-04-23T23:33:12.326Z,97546.59
2023-04-23T23:36:16.354Z,97546.88
2023-04-23T23:39:20.618Z,97541.72
2023-04-23T23:42:23.143Z,97548.56
2023-04-23T23:45:25.931Z,97545.09
2023-04-23T23:48:28.525Z,97533.00
2023-04-23T23:51:32.542Z,97525.34
2023-04-23T23:54:35.264Z,97529.69
2023-04-23T23:57:37.794Z,97523.69
